sensor_id;sensor_type;location;lat;lon;timestamp;pressure;altitude;pressure_sealevel;temperature;humidity
41636;BME280;27623;51.966;4.602;2023-11-19T00:00:31;64911.59;;;14.39;100.00
41636;BME280;27623;51.966;4.602;2023-11-19T00:02:57;64901.72;;;14.52;100.00
41636;BME280;27623;51.966;4.602;2023-11-19T00:05:22;64857.34;;;14.56;100.00
41636;BME280;27623;51.966;4.602;2023-11-19T00:07:47;64885.41;;;14.53;100.00
41636;BME280;27623;51.966;4.602;2023-11-19T00:10:14;64881.56;;;14.50;100.00
41636;BME280;27623;51.966;4.602;2023-11-19T00:12:45;64869.31;;;14.50;100.00
41636;BME280;27623;51.966;4.602;2023-11-19T00:15:11;64848.44;;;14.38;100.00
41636;BME280;27623;51.966;4.602;2023-11-19T00:17:37;64893.66;;;14.39;100.00
41636;BME280;27623;51.966;4.602;2023-11-19T00:20:06;64886.91;;;14.45;100.00
41636;BME280;27623;51.966;4.602;2023-11-19T00:22:34;64874.97;;;14.36;100.00
41636;BME280;27623;51.966;4.602;2023-11-19T00:25:00;64865.09;;;14.34;100.00
41636;BME280;27623;51.966;4.602;2023-11-19T00:27:25;64909.59;;;14.40;100.00
41636;BME280;27623;51.966;4.602;2023-11-19T00:29:51;64886.72;;;14.42;100.00
41636;BME280;27623;51.966;4.602;2023-11-19T00:32:16;64864.72;;;14.43;100.00
41636;BME280;27623;51.966;4.602;2023-11-19T00:34:45;64877.94;;;14.41;100.00
41636;BME280;27623;51.966;4.602;2023-11-19T00:37:10;64866.19;;;14.50;100.00
41636;BME280;27623;51.966;4.602;2023-11-19T00:39:35;64909.97;;;14.38;100.00
41636;BME280;27623;51.966;4.602;2023-11-19T00:42:01;64861.81;;;14.31;100.00
41636;BME280;27623;51.966;4.602;2023-11-19T00:44:26;64861.06;;;14.42;100.00
41636;BME280;27623;51.966;4.602;2023-11-19T00:46:52;64887.09;;;14.33;100.00
41636;BME280;27623;51.966;4.602;2023-11-19T00:49:17;64861.78;;;14.38;100.00
41636;BME280;27623;51.966;4.602;2023-11-19T00:51:42;64844.75;;;14.37;100.00
41636;BME280;27623;51.966;4.602;2023-11-19T00:54:10;64857.22;;;14.39;100.00
41636;BME280;27623;51.966;4.602;2023-11-19T00:56:35;64881.75;;;14.45;100.00
41636;BME280;27623;51.966;4.602;2023-11-19T00:59:02;64859.59;;;14.43;100.00
41636;BME280;27623;51.966;4.602;2023-11-19T01:01:27;64888.72;;;14.42;100.00
41636;BME280;27623;51.966;4.602;2023-11-19T01:03:53;64897.53;;;14.43;100.00
41636;BME280;27623;51.966;4.602;2023-11-19T01:06:28;64838.53;;;14.36;100.00
41636;BME280;27623;51.966;4.602;2023-11-19T01:08:54;64803.97;;;14.25;100.00
41636;BME280;27623;51.966;4.602;2023-11-19T01:11:21;64883.41;;;14.39;100.00
41636;BME280;27623;51.966;4.602;2023-11-19T01:13:47;64854.84;;;14.34;100.00
41636;BME280;27623;51.966;4.602;2023-11-19T01:16:12;64862.19;;;14.29;100.00
41636;BME280;27623;51.966;4.602;2023-11-19T01:18:38;64858.53;;;14.28;100.00
41636;BME280;27623;51.966;4.602;2023-11-19T01:21:04;64835.66;;;14.24;100.00
41636;BME280;27623;51.966;4.602;2023-11-19T01:23:29;64839.31;;;14.25;100.00
41636;BME280;27623;51.966;4.602;2023-11-19T01:25:55;64860.06;;;14.13;100.00
41636;BME280;27623;51.966;4.602;2023-11-19T01:28:20;64816.25;;;14.18;100.00
41636;BME280;27623;51.966;4.602;2023-11-19T01:30:46;64843.72;;;14.15;100.00
41636;BME280;27623;51.966;4.602;2023-11-19T01:33:11;64846.88;;;14.08;100.00
41636;BME280;27623;51.966;4.602;2023-11-19T01:35:36;64825.47;;;14.09;100.00
41636;BME280;27623;51.966;4.602;2023-11-19T01:38:02;64798.38;;;14.03;100.00
41636;BME280;27623;51.966;4.602;2023-11-19T01:40:27;64834.03;;;14.15;100.00
41636;BME280;27623;51.966;4.602;2023-11-19T01:42:52;64848.16;;;14.12;100.00
41636;BME280;27623;51.966;4.602;2023-11-19T01:45:27;64802.38;;;14.09;100.00
41636;BME280;27623;51.966;4.602;2023-11-19T01:47:57;64833.16;;;14.02;100.00
41636;BME280;27623;51.966;4.602;2023-11-19T01:50:23;64789.75;;;14.12;100.00
41636;BME280;27623;51.966;4.602;2023-11-19T01:52:52;64815.94;;;14.13;100.00
41636;BME280;27623;51.966;4.602;2023-11-19T01:55:19;64836.59;;;14.15;100.00
41636;BME280;27623;51.966;4.602;2023-11-19T01:57:45;64772.81;;;13.89;100.00
41636;BME280;27623;51.966;4.602;2023-11-19T02:00:12;64779.56;;;13.91;100.00
41636;BME280;27623;51.966;4.602;2023-11-19T02:02:40;64783.03;;;13.96;100.00
41636;BME280;27623;51.966;4.602;2023-11-19T02:05:06;64810.47;;;13.93;100.00
41636;BME280;27623;51.966;4.602;2023-11-19T02:07:32;64785.09;;;13.82;100.00
41636;BME280;27623;51.966;4.602;2023-11-19T02:09:57;64784.69;;;13.91;100.00
41636;BME280;27623;51.966;4.602;2023-11-19T02:12:28;64809.59;;;13.88;100.00
41636;BME280;27623;51.966;4.602;2023-11-19T02:14:54;64785.06;;;13.89;100.00
41636;BME280;27623;51.966;4.602;2023-11-19T02:17:30;64797.84;;;13.96;100.00
41636;BME280;27623;51.966;4.602;2023-11-19T02:20:00;64833.38;;;13.91;100.00
41636;BME280;27623;51.966;4.602;2023-11-19T02:22:25;64795.88;;;13.82;100.00
41636;BME280;27623;51.966;4.602;2023-11-19T02:24:52;64760.19;;;13.85;100.00
41636;BME280;27623;51.966;4.602;2023-11-19T02:27:39;64761.88;;;13.72;100.00
41636;BME280;27623;51.966;4.602;2023-11-19T02:30:05;64782.88;;;13.80;100.00
41636;BME280;27623;51.966;4.602;2023-11-19T02:32:34;64781.44;;;13.73;100.00
41636;BME280;27623;51.966;4.602;2023-11-19T02:34:59;64769.59;;;13.65;100.00
41636;BME280;27623;51.966;4.602;2023-11-19T02:37:24;64737.41;;;13.59;100.00
41636;BME280;27623;51.966;4.602;2023-11-19T02:39:50;64737.94;;;13.59;100.00
41636;BME280;27623;51.966;4.602;2023-11-19T02:42:16;64767.75;;;13.61;100.00
41636;BME280;27623;51.966;4.602;2023-11-19T02:44:44;64793.53;;;13.70;100.00
41636;BME280;27623;51.966;4.602;2023-11-19T02:47:11;64817.50;;;13.69;100.00
41636;BME280;27623;51.966;4.602;2023-11-19T02:49:36;64770.09;;;13.72;100.00
41636;BME280;27623;51.966;4.602;2023-11-19T02:52:03;64764.09;;;13.60;100.00
41636;BME280;27623;51.966;4.602;2023-11-19T02:54:30;64771.59;;;13.57;100.00
41636;BME280;27623;51.966;4.602;2023-11-19T02:57:00;64765.94;;;13.64;100.00
41636;BME280;27623;51.966;4.602;2023-11-19T02:59:26;64754.06;;;13.55;100.00
41636;BME280;27623;51.966;4.602;2023-11-19T03:01:53;64736.50;;;13.53;100.00
41636;BME280;27623;51.966;4.602;2023-11-19T03:04:19;64756.06;;;13.62;100.00
41636;BME280;27623;51.966;4.602;2023-11-19T03:06:48;64791.91;;;13.55;100.00
41636;BME280;27623;51.966;4.602;2023-11-19T03:09:13;64738.88;;;13.58;100.00
41636;BME280;27623;51.966;4.602;2023-11-19T03:11:39;64780.75;;;13.63;100.00
41636;BME280;27623;51.966;4.602;2023-11-19T03:14:04;64777.63;;;13.70;100.00
41636;BME280;27623;51.966;4.602;2023-11-19T03:16:30;64756.59;;;13.55;100.00
41636;BME280;27623;51.966;4.602;2023-11-19T03:18:55;64759.34;;;13.58;100.00
41636;BME280;27623;51.966;4.602;2023-11-19T03:21:30;64732.81;;;13.59;100.00
41636;BME280;27623;51.966;4.602;2023-11-19T03:23:56;64743.84;;;13.48;100.00
41636;BME280;27623;51.966;4.602;2023-11-19T03:26:23;64763.00;;;13.52;100.00
41636;BME280;27623;51.966;4.602;2023-11-19T03:28:48;64743.06;;;13.59;100.00
41636;BME280;27623;51.966;4.602;2023-11-19T03:31:14;64770.50;;;13.56;100.00
41636;BME280;27623;51.966;4.602;2023-11-19T03:33:39;64760.44;;;13.59;100.00
41636;BME280;27623;51.966;4.602;2023-11-19T03:36:05;64752.63;;;13.49;100.00
41636;BME280;27623;51.966;4.602;2023-11-19T03:38:33;64759.56;;;13.46;100.00
41636;BME280;27623;51.966;4.602;2023-11-19T03:40:58;64734.88;;;13.45;100.00
41636;BME280;27623;51.966;4.602;2023-11-19T03:43:24;64759.75;;;13.41;100.00
41636;BME280;27623;51.966;4.602;2023-11-19T03:45:49;64721.19;;;13.39;100.00
41636;BME280;27623;51.966;4.602;2023-11-19T03:48:15;64713.28;;;13.51;100.00
41636;BME280;27623;51.966;4.602;2023-11-19T03:50:44;64761.59;;;13.46;100.00
41636;BME280;27623;51.966;4.602;2023-11-19T03:53:12;64727.75;;;13.38;100.00
41636;BME280;27623;51.966;4.602;2023-11-19T03:55:38;64751.53;;;13.48;100.00
41636;BME280;27623;51.966;4.602;2023-11-19T03:58:03;64765.59;;;13.45;100.00
41636;BME280;27623;51.966;4.602;2023-11-19T04:00:29;64744.38;;;13.49;100.00
41636;BME280;27623;51.966;4.602;2023-11-19T04:02:54;64741.97;;;13.51;100.00
41636;BME280;27623;51.966;4.602;2023-11-19T04:05:20;64734.50;;;13.47;100.00
41636;BME280;27623;51.966;4.602;2023-11-19T04:07:45;64769.22;;;13.60;100.00
41636;BME280;27623;51.966;4.602;2023-11-19T04:10:11;64757.91;;;13.52;100.00
41636;BME280;27623;51.966;4.602;2023-11-19T04:12:36;64742.38;;;13.49;100.00
41636;BME280;27623;51.966;4.602;2023-11-19T04:15:04;64735.97;;;13.46;100.00
41636;BME280;27623;51.966;4.602;2023-11-19T04:17:31;64759.56;;;13.46;100.00
41636;BME280;27623;51.966;4.602;2023-11-19T04:19:56;64730.69;;;13.36;100.00
41636;BME280;27623;51.966;4.602;2023-11-19T04:22:21;64759.75;;;13.34;100.00
41636;BME280;27623;51.966;4.602;2023-11-19T04:24:47;64740.38;;;13.35;100.00
41636;BME280;27623;51.966;4.602;2023-11-19T04:27:12;64767.44;;;13.41;100.00
41636;BME280;27623;51.966;4.602;2023-11-19T04:29:41;64696.00;;;13.30;100.00
41636;BME280;27623;51.966;4.602;2023-11-19T04:32:06;64724.50;;;13.28;100.00
41636;BME280;27623;51.966;4.602;2023-11-19T04:34:32;64713.50;;;13.32;100.00
41636;BME280;27623;51.966;4.602;2023-11-19T04:36:58;64715.38;;;13.22;100.00
41636;BME280;27623;51.966;4.602;2023-11-19T04:39:27;64706.94;;;13.33;100.00
41636;BME280;27623;51.966;4.602;2023-11-19T04:41:52;64770.38;;;13.39;100.00
41636;BME280;27623;51.966;4.602;2023-11-19T04:44:18;64693.44;;;13.30;100.00
41636;BME280;27623;51.966;4.602;2023-11-19T04:46:44;64715.38;;;13.29;100.00
41636;BME280;27623;51.966;4.602;2023-11-19T04:49:10;64711.50;;;13.39;100.00
41636;BME280;27623;51.966;4.602;2023-11-19T04:51:40;64731.59;;;13.41;100.00
41636;BME280;27623;51.966;4.602;2023-11-19T04:54:07;64721.53;;;13.44;100.00
41636;BME280;27623;51.966;4.602;2023-11-19T04:56:34;64702.94;;;13.27;100.00
41636;BME280;27623;51.966;4.602;2023-11-19T04:58:59;64707.50;;;13.26;100.00
41636;BME280;27623;51.966;4.602;2023-11-19T05:01:25;64717.38;;;13.28;100.00
41636;BME280;27623;51.966;4.602;2023-11-19T05:03:52;64725.22;;;13.31;100.00
41636;BME280;27623;51.966;4.602;2023-11-19T05:06:17;64728.69;;;13.36;100.00
41636;BME280;27623;51.966;4.602;2023-11-19T05:08:44;64731.66;;;13.20;100.00
41636;BME280;27623;51.966;4.602;2023-11-19T05:11:09;64677.91;;;13.27;100.00
41636;BME280;27623;51.966;4.602;2023-11-19T05:13:37;64725.22;;;13.31;100.00
41636;BME280;27623;51.966;4.602;2023-11-19T05:16:02;64702.22;;;13.24;100.00
41636;BME280;27623;51.966;4.602;2023-11-19T05:18:28;64697.47;;;13.22;100.00
41636;BME280;27623;51.966;4.602;2023-11-19T05:20:53;64696.56;;;13.23;100.00
41636;BME280;27623;51.966;4.602;2023-11-19T05:23:18;64690.69;;;13.27;100.00
41636;BME280;27623;51.966;4.602;2023-11-19T05:25:44;64677.16;;;13.24;100.00
41636;BME280;27623;51.966;4.602;2023-11-19T05:28:11;64719.78;;;13.19;100.00
41636;BME280;27623;51.966;4.602;2023-11-19T05:30:36;64753.75;;;13.29;100.00
41636;BME280;27623;51.966;4.602;2023-11-19T05:33:01;64710.44;;;13.24;100.00
41636;BME280;27623;51.966;4.602;2023-11-19T05:35:27;64723.78;;;13.25;100.00
41636;BME280;27623;51.966;4.602;2023-11-19T05:37:52;64706.22;;;13.30;100.00
41636;BME280;27623;51.966;4.602;2023-11-19T05:40:18;64698.78;;;13.04;100.00
41636;BME280;27623;51.966;4.602;2023-11-19T05:42:45;64670.59;;;13.18;100.00
41636;BME280;27623;51.966;4.602;2023-11-19T05:45:11;64699.47;;;13.14;100.00
41636;BME280;27623;51.966;4.602;2023-11-19T05:47:37;64701.88;;;13.04;100.00
41636;BME280;27623;51.966;4.602;2023-11-19T05:50:02;64702.22;;;13.09;100.00
41636;BME280;27623;51.966;4.602;2023-11-19T05:52:29;64708.81;;;13.16;100.00
41636;BME280;27623;51.966;4.602;2023-11-19T05:55:01;64681.94;;;13.19;100.00
41636;BME280;27623;51.966;4.602;2023-11-19T05:57:34;64698.38;;;13.20;100.00
41636;BME280;27623;51.966;4.602;2023-11-19T06:00:00;64708.25;;;13.15;100.00
41636;BME280;27623;51.966;4.602;2023-11-19T06:02:25;64681.22;;;13.16;100.00
41636;BME280;27623;51.966;4.602;2023-11-19T06:04:52;64683.56;;;13.14;100.00
41636;BME280;27623;51.966;4.602;2023-11-19T06:07:20;64653.97;;;13.15;100.00
41636;BME280;27623;51.966;4.602;2023-11-19T06:09:48;64714.81;;;13.14;100.00
41636;BME280;27623;51.966;4.602;2023-11-19T06:12:13;64704.41;;;13.12;100.00
41636;BME280;27623;51.966;4.602;2023-11-19T06:14:40;64717.38;;;13.21;100.00
41636;BME280;27623;51.966;4.602;2023-11-19T06:17:05;64687.78;;;13.15;100.00
41636;BME280;27623;51.966;4.602;2023-11-19T06:19:33;64690.88;;;13.23;100.00
41636;BME280;27623;51.966;4.602;2023-11-19T06:21:59;64709.53;;;13.19;100.00
41636;BME280;27623;51.966;4.602;2023-11-19T06:24:25;64729.09;;;13.20;100.00
41636;BME280;27623;51.966;4.602;2023-11-19T06:26:50;64684.31;;;13.17;100.00
41636;BME280;27623;51.966;4.602;2023-11-19T06:29:15;64716.47;;;13.23;100.00
41636;BME280;27623;51.966;4.602;2023-11-19T06:31:44;64694.53;;;13.24;100.00
41636;BME280;27623;51.966;4.602;2023-11-19T06:34:10;64705.50;;;13.20;100.00
41636;BME280;27623;51.966;4.602;2023-11-19T06:36:35;64677.34;;;13.13;100.00
41636;BME280;27623;51.966;4.602;2023-11-19T06:39:01;64716.66;;;13.18;100.00
41636;BME280;27623;51.966;4.602;2023-11-19T06:41:27;64679.00;;;13.14;100.00
41636;BME280;27623;51.966;4.602;2023-11-19T06:43:54;64695.47;;;13.15;100.00
41636;BME280;27623;51.966;4.602;2023-11-19T06:46:19;64685.03;;;13.20;100.00
41636;BME280;27623;51.966;4.602;2023-11-19T06:48:47;64699.66;;;13.09;100.00
41636;BME280;27623;51.966;4.602;2023-11-19T06:51:12;64700.22;;;13.10;100.00
41636;BME280;27623;51.966;4.602;2023-11-19T06:53:38;64701.31;;;13.18;100.00
41636;BME280;27623;51.966;4.602;2023-11-19T06:56:05;64713.34;;;13.29;100.00
41636;BME280;27623;51.966;4.602;2023-11-19T06:58:32;64697.66;;;13.17;100.00
41636;BME280;27623;51.966;4.602;2023-11-19T07:01:00;64661.84;;;13.03;100.00
41636;BME280;27623;51.966;4.602;2023-11-19T07:03:29;64727.28;;;13.09;100.00
41636;BME280;27623;51.966;4.602;2023-11-19T07:05:55;64713.38;;;13.15;100.00
41636;BME280;27623;51.966;4.602;2023-11-19T07:08:23;64709.34;;;13.23;100.00
41636;BME280;27623;51.966;4.602;2023-11-19T07:10:48;64694.53;;;13.24;100.00
41636;BME280;27623;51.966;4.602;2023-11-19T07:13:16;64669.88;;;13.22;100.00
41636;BME280;27623;51.966;4.602;2023-11-19T07:15:41;64709.84;;;13.31;100.00
41636;BME280;27623;51.966;4.602;2023-11-19T07:18:07;64705.16;;;13.22;100.00
41636;BME280;27623;51.966;4.602;2023-11-19T07:20:35;64718.44;;;13.36;100.00
41636;BME280;27623;51.966;4.602;2023-11-19T07:23:00;64707.69;;;13.29;100.00
41636;BME280;27623;51.966;4.602;2023-11-19T07:25:26;64745.31;;;13.33;100.00
41636;BME280;27623;51.966;4.602;2023-11-19T07:27:51;64719.72;;;13.40;100.00
41636;BME280;27623;51.966;4.602;2023-11-19T07:30:17;64700.56;;;13.29;100.00
41636;BME280;27623;51.966;4.602;2023-11-19T07:32:43;64724.50;;;13.28;100.00
41636;BME280;27623;51.966;4.602;2023-11-19T07:35:08;64737.09;;;13.32;100.00
41636;BME280;27623;51.966;4.602;2023-11-19T07:37:34;64734.38;;;13.30;100.00
41636;BME280;27623;51.966;4.602;2023-11-19T07:39:59;64681.19;;;13.23;100.00
41636;BME280;27623;51.966;4.602;2023-11-19T07:42:25;64721.19;;;13.32;100.00
41636;BME280;27623;51.966;4.602;2023-11-19T07:44:50;64681.50;;;13.35;100.00
41636;BME280;27623;51.966;4.602;2023-11-19T07:47:16;64715.53;;;13.31;100.00
41636;BME280;27623;51.966;4.602;2023-11-19T07:49:41;64710.41;;;13.31;100.00
41636;BME280;27623;51.966;4.602;2023-11-19T07:52:09;64712.41;;;13.31;100.00
41636;BME280;27623;51.966;4.602;2023-11-19T07:54:34;64701.81;;;13.33;100.00
41636;BME280;27623;51.966;4.602;2023-11-19T07:56:59;64726.84;;;13.47;100.00
41636;BME280;27623;51.966;4.602;2023-11-19T07:59:25;64691.41;;;13.30;100.00
41636;BME280;27623;51.966;4.602;2023-11-19T08:01:50;64711.88;;;13.30;100.00
41636;BME280;27623;51.966;4.602;2023-11-19T08:04:15;64712.25;;;13.28;100.00
41636;BME280;27623;51.966;4.602;2023-11-19T08:06:41;64668.41;;;13.16;100.00
41636;BME280;27623;51.966;4.602;2023-11-19T08:09:06;64709.88;;;13.24;100.00
41636;BME280;27623;51.966;4.602;2023-11-19T08:11:32;64691.25;;;13.28;100.00
41636;BME280;27623;51.966;4.602;2023-11-19T08:13:58;64712.97;;;13.31;100.00
41636;BME280;27623;51.966;4.602;2023-11-19T08:16:24;64737.66;;;13.33;100.00
41636;BME280;27623;51.966;4.602;2023-11-19T08:18:52;64697.06;;;13.31;100.00
41636;BME280;27623;51.966;4.602;2023-11-19T08:21:17;64679.69;;;13.31;100.00
41636;BME280;27623;51.966;4.602;2023-11-19T08:23:43;64731.41;;;13.46;100.00
41636;BME280;27623;51.966;4.602;2023-11-19T08:26:08;64733.25;;;13.43;100.00
41636;BME280;27623;51.966;4.602;2023-11-19T08:28:34;64746.94;;;13.49;100.00
41636;BME280;27623;51.966;4.602;2023-11-19T08:31:02;64727.75;;;13.45;100.00
41636;BME280;27623;51.966;4.602;2023-11-19T08:33:29;64760.81;;;13.64;100.00
41636;BME280;27623;51.966;4.602;2023-11-19T08:35:54;64734.66;;;13.56;100.00
41636;BME280;27623;51.966;4.602;2023-11-19T08:38:20;64768.84;;;13.62;100.00
41636;BME280;27623;51.966;4.602;2023-11-19T08:40:45;64721.50;;;13.58;100.00
41636;BME280;27623;51.966;4.602;2023-11-19T08:43:10;64780.56;;;13.68;100.00
41636;BME280;27623;51.966;4.602;2023-11-19T08:45:36;64784.97;;;13.58;100.00
41636;BME280;27623;51.966;4.602;2023-11-19T08:48:04;64743.25;;;13.62;100.00
41636;BME280;27623;51.966;4.602;2023-11-19T08:50:29;64737.22;;;13.63;100.00
41636;BME280;27623;51.966;4.602;2023-11-19T08:52:54;64776.72;;;13.57;100.00
41636;BME280;27623;51.966;4.602;2023-11-19T08:55:20;64771.41;;;13.69;100.00
41636;BME280;27623;51.966;4.602;2023-11-19T08:57:45;64742.88;;;13.64;100.00
41636;BME280;27623;51.966;4.602;2023-11-19T09:00:11;64739.22;;;13.56;100.00
41636;BME280;27623;51.966;4.602;2023-11-19T09:02:39;64737.22;;;13.63;100.00
41636;BME280;27623;51.966;4.602;2023-11-19T09:05:05;64789.69;;;13.67;100.00
41636;BME280;27623;51.966;4.602;2023-11-19T09:07:32;64777.22;;;13.79;100.00
41636;BME280;27623;51.966;4.602;2023-11-19T09:10:00;64757.84;;;13.73;100.00
41636;BME280;27623;51.966;4.602;2023-11-19T09:12:25;64756.94;;;13.67;100.00
41636;BME280;27623;51.966;4.602;2023-11-19T09:14:51;64746.13;;;13.74;100.00
41636;BME280;27623;51.966;4.602;2023-11-19T09:17:16;64768.13;;;13.66;100.00
41636;BME280;27623;51.966;4.602;2023-11-19T09:19:43;64749.06;;;13.72;100.00
41636;BME280;27623;51.966;4.602;2023-11-19T09:22:08;64733.00;;;13.62;100.00
41636;BME280;27623;51.966;4.602;2023-11-19T09:24:33;64774.34;;;13.60;100.00
41636;BME280;27623;51.966;4.602;2023-11-19T09:26:59;64743.25;;;13.55;100.00
41636;BME280;27623;51.966;4.602;2023-11-19T09:29:25;64789.31;;;13.76;100.00
41636;BME280;27623;51.966;4.602;2023-11-19T09:31:50;64754.72;;;13.80;100.00
41636;BME280;27623;51.966;4.602;2023-11-19T09:34:16;64794.94;;;13.91;100.00
41636;BME280;27623;51.966;4.602;2023-11-19T09:36:42;64816.66;;;14.08;100.00
41636;BME280;27623;51.966;4.602;2023-11-19T09:39:10;64804.94;;;14.09;100.00
41636;BME280;27623;51.966;4.602;2023-11-19T09:41:35;64808.25;;;14.05;100.00
41636;BME280;27623;51.966;4.602;2023-11-19T09:44:01;64850.31;;;14.28;100.00
41636;BME280;27623;51.966;4.602;2023-11-19T09:46:26;64818.81;;;14.25;100.00
41636;BME280;27623;51.966;4.602;2023-11-19T09:48:53;64807.63;;;14.26;100.00
41636;BME280;27623;51.966;4.602;2023-11-19T09:51:21;64796.66;;;14.23;100.00
41636;BME280;27623;51.966;4.602;2023-11-19T09:53:47;64866.56;;;14.40;100.00
41636;BME280;27623;51.966;4.602;2023-11-19T09:56:13;64860.53;;;14.42;100.00
41636;BME280;27623;51.966;4.602;2023-11-19T09:58:39;64838.72;;;14.46;100.00
41636;BME280;27623;51.966;4.602;2023-11-19T10:01:05;64873.47;;;14.59;100.00
41636;BME280;27623;51.966;4.602;2023-11-19T10:03:35;64851.53;;;14.53;100.00
41636;BME280;27623;51.966;4.602;2023-11-19T10:06:03;64864.50;;;14.55;100.00
41636;BME280;27623;51.966;4.602;2023-11-19T10:08:29;64810.50;;;14.38;100.00
41636;BME280;27623;51.966;4.602;2023-11-19T10:10:55;64854.66;;;14.46;100.00
41636;BME280;27623;51.966;4.602;2023-11-19T10:13:26;64870.56;;;14.54;100.00
41636;BME280;27623;51.966;4.602;2023-11-19T10:15:52;64852.59;;;14.61;100.00
41636;BME280;27623;51.966;4.602;2023-11-19T10:18:18;64823.53;;;14.41;100.00
41636;BME280;27623;51.966;4.602;2023-11-19T10:20:43;64829.00;;;14.53;100.00
41636;BME280;27623;51.966;4.602;2023-11-19T10:23:10;64865.03;;;14.70;100.00
41636;BME280;27623;51.966;4.602;2023-11-19T10:25:36;64893.00;;;14.82;100.00
41636;BME280;27623;51.966;4.602;2023-11-19T10:28:01;64927.22;;;15.01;100.00
41636;BME280;27623;51.966;4.602;2023-11-19T10:30:29;64939.66;;;15.10;100.00
41636;BME280;27623;51.966;4.602;2023-11-19T10:33:11;64918.38;;;15.15;100.00
41636;BME280;27623;51.966;4.602;2023-11-19T10:35:52;64924.75;;;15.18;100.00
41636;BME280;27623;51.966;4.602;2023-11-19T10:38:19;64936.03;;;14.95;98.98
41636;BME280;27623;51.966;4.602;2023-11-19T10:40:44;64948.47;;;15.04;99.91
41636;BME280;27623;51.966;4.602;2023-11-19T10:43:10;64912.91;;;15.02;99.36
41636;BME280;27623;51.966;4.602;2023-11-19T10:45:36;64901.59;;;14.87;99.84
41636;BME280;27623;51.966;4.602;2023-11-19T10:48:03;64878.19;;;14.75;98.75
41636;BME280;27623;51.966;4.602;2023-11-19T10:50:36;64881.31;;;14.75;100.00
41636;BME280;27623;51.966;4.602;2023-11-19T10:53:03;64867.38;;;14.74;100.00
41636;BME280;27623;51.966;4.602;2023-11-19T10:55:47;64887.41;;;14.60;100.00
41636;BME280;27623;51.966;4.602;2023-11-19T10:58:15;64862.66;;;14.58;100.00
41636;BME280;27623;51.966;4.602;2023-11-19T11:01:06;64849.84;;;14.58;100.00
41636;BME280;27623;51.966;4.602;2023-11-19T11:03:40;64876.03;;;14.66;100.00
41636;BME280;27623;51.966;4.602;2023-11-19T11:06:05;64917.00;;;14.80;100.00
41636;BME280;27623;51.966;4.602;2023-11-19T11:08:31;64901.28;;;14.75;100.00
41636;BME280;27623;51.966;4.602;2023-11-19T11:10:57;64859.19;;;14.60;100.00
41636;BME280;27623;51.966;4.602;2023-11-19T11:13:26;64850.56;;;14.61;100.00
41636;BME280;27623;51.966;4.602;2023-11-19T11:15:55;64868.50;;;14.68;100.00
41636;BME280;27623;51.966;4.602;2023-11-19T11:18:23;64869.78;;;14.65;100.00
41636;BME280;27623;51.966;4.602;2023-11-19T11:20:52;64893.59;;;14.75;100.00
41636;BME280;27623;51.966;4.602;2023-11-19T11:29:09;64901.16;;;15.03;100.00
41636;BME280;27623;51.966;4.602;2023-11-19T11:39:35;65001.31;;;15.56;100.00
41636;BME280;27623;51.966;4.602;2023-11-19T11:45:10;64969.41;;;15.93;99.44
41636;BME280;27623;51.966;4.602;2023-11-19T11:50:24;65034.56;;;15.98;98.09
41636;BME280;27623;51.966;4.602;2023-11-19T11:55:27;65017.78;;;16.16;93.24
41636;BME280;27623;51.966;4.602;2023-11-19T11:57:55;65081.88;;;16.59;92.75
41636;BME280;27623;51.966;4.602;2023-11-19T12:00:31;65099.91;;;16.52;90.40
41636;BME280;27623;51.966;4.602;2023-11-19T12:02:58;65143.31;;;16.92;87.81
41636;BME280;27623;51.966;4.602;2023-11-19T12:05:24;65116.75;;;16.72;86.34
41636;BME280;27623;51.966;4.602;2023-11-19T12:07:56;65088.81;;;16.63;87.72
41636;BME280;27623;51.966;4.602;2023-11-19T12:10:24;65111.28;;;16.60;88.09
41636;BME280;27623;51.966;4.602;2023-11-19T12:12:52;65079.28;;;16.59;89.16
41636;BME280;27623;51.966;4.602;2023-11-19T12:15:20;65055.59;;;16.20;88.73
41636;BME280;27623;51.966;4.602;2023-11-19T12:17:50;65074.28;;;16.30;90.39
41636;BME280;27623;51.966;4.602;2023-11-19T12:20:17;65045.72;;;16.42;91.21
41636;BME280;27623;51.966;4.602;2023-11-19T12:22:44;65058.63;;;16.35;89.29
41636;BME280;27623;51.966;4.602;2023-11-19T12:25:10;65044.50;;;16.31;90.72
41636;BME280;27623;51.966;4.602;2023-11-19T12:27:40;65073.81;;;16.08;88.98
41636;BME280;27623;51.966;4.602;2023-11-19T12:30:06;65034.00;;;15.98;90.04
41636;BME280;27623;51.966;4.602;2023-11-19T12:32:42;65005.69;;;15.67;92.32
41636;BME280;27623;51.966;4.602;2023-11-19T12:35:08;64970.06;;;15.72;93.17
41636;BME280;27623;51.966;4.602;2023-11-19T12:37:43;64989.03;;;15.56;93.97
41636;BME280;27623;51.966;4.602;2023-11-19T12:40:16;64980.34;;;15.65;94.96
41636;BME280;27623;51.966;4.602;2023-11-19T12:42:47;64956.44;;;15.31;96.01
41636;BME280;27623;51.966;4.602;2023-11-19T12:45:13;64922.38;;;15.21;96.67
41636;BME280;27623;51.966;4.602;2023-11-19T12:47:45;64957.19;;;15.27;96.59
41636;BME280;27623;51.966;4.602;2023-11-19T12:50:13;64879.53;;;15.02;96.55
41636;BME280;27623;51.966;4.602;2023-11-19T12:52:38;64899.50;;;15.09;98.20
41636;BME280;27623;51.966;4.602;2023-11-19T12:55:05;64907.41;;;15.04;97.45
41636;BME280;27623;51.966;4.602;2023-11-19T12:57:38;64915.28;;;15.07;98.00
41636;BME280;27623;51.966;4.602;2023-11-19T13:00:05;64922.97;;;15.07;98.12
41636;BME280;27623;51.966;4.602;2023-11-19T13:02:55;64868.72;;;15.02;98.75
41636;BME280;27623;51.966;4.602;2023-11-19T13:05:33;64895.88;;;15.01;99.05
41636;BME280;27623;51.966;4.602;2023-11-19T13:07:59;64892.19;;;15.00;100.00
41636;BME280;27623;51.966;4.602;2023-11-19T13:10:29;64901.91;;;15.06;100.00